sensor_id;sensor_type;location;lat;lon;timestamp;P1;durP1;ratioP1;P2;durP2;ratioP2
1545;SDS011;766;51.502;9.752;2023-04-24T00:00:29;1.42;;;0.98;;
1545;SDS011;766;51.502;9.752;2023-04-24T00:02:57;2.70;;;0.95;;
1545;SDS011;766;51.502;9.752;2023-04-24T00:05:27;2.20;;;1.13;;
1545;SDS011;766;51.502;9.752;2023-04-24T00:07:55;2.03;;;1.10;;
1545;SDS011;766;51.502;9.752;2023-04-24T00:10:23;3.47;;;1.17;;
1545;SDS011;766;51.502;9.752;2023-04-24T00:12:53;0.80;;;0.80;;
1545;SDS011;766;51.502;9.752;2023-04-24T00:15:22;3.83;;;1.13;;
1545;SDS011;766;51.502;9.752;2023-04-24T00:17:50;1.30;;;1.08;;
1545;SDS011;766;51.502;9.752;2023-04-24T00:20:20;1.90;;;1.08;;
1545;SDS011;766;51.502;9.752;2023-04-24T00:22:49;1.58;;;1.00;;
1545;SDS011;766;51.502;9.752;2023-04-24T00:25:17;4.00;;;1.00;;
1545;SDS011;766;51.502;9.752;2023-04-24T00:27:45;3.28;;;0.98;;
1545;SDS011;766;51.502;9.752;2023-04-24T00:30:15;1.70;;;1.00;;
1545;SDS011;766;51.502;9.752;2023-04-24T00:32:44;2.75;;;0.90;;
1545;SDS011;766;51.502;9.752;2023-04-24T00:35:13;3.60;;;0.85;;
1545;SDS011;766;51.502;9.752;2023-04-24T00:37:42;4.57;;;0.95;;
1545;SDS011;766;51.502;9.752;2023-04-24T00:40:10;1.50;;;0.80;;
1545;SDS011;766;51.502;9.752;2023-04-24T00:42:39;1.75;;;1.10;;
1545;SDS011;766;51.502;9.752;2023-04-24T00:45:09;0.80;;;0.65;;
1545;SDS011;766;51.502;9.752;2023-04-24T00:47:39;0.93;;;0.60;;
1545;SDS011;766;51.502;9.752;2023-04-24T00:50:09;0.60;;;0.60;;
1545;SDS011;766;51.502;9.752;2023-04-24T00:52:39;3.63;;;0.75;;
1545;SDS011;766;51.502;9.752;2023-04-24T00:55:08;1.00;;;0.70;;
1545;SDS011;766;51.502;9.752;2023-04-24T00:57:36;0.60;;;0.60;;
1545;SDS011;766;51.502;9.752;2023-04-24T01:00:05;1.15;;;0.77;;
1545;SDS011;766;51.502;9.752;2023-04-24T01:02:41;2.70;;;0.50;;
1545;SDS011;766;51.502;9.752;2023-04-24T01:05:12;0.55;;;0.55;;
1545;SDS011;766;51.502;9.752;2023-04-24T01:07:41;1.50;;;0.70;;
1545;SDS011;766;51.502;9.752;2023-04-24T01:10:13;0.73;;;0.68;;
1545;SDS011;766;51.502;9.752;2023-04-24T01:12:41;2.63;;;0.80;;
1545;SDS011;766;51.502;9.752;2023-04-24T01:15:12;1.95;;;0.80;;
1545;SDS011;766;51.502;9.752;2023-04-24T01:17:42;2.42;;;1.10;;
1545;SDS011;766;51.502;9.752;2023-04-24T01:20:11;2.13;;;0.82;;
1545;SDS011;766;51.502;9.752;2023-04-24T01:22:43;0.82;;;0.73;;
1545;SDS011;766;51.502;9.752;2023-04-24T01:25:11;2.58;;;0.90;;
1545;SDS011;766;51.502;9.752;2023-04-24T01:27:40;1.30;;;0.70;;
1545;SDS011;766;51.502;9.752;2023-04-24T01:30:08;1.25;;;0.80;;
1545;SDS011;766;51.502;9.752;2023-04-24T01:32:38;4.60;;;1.10;;
1545;SDS011;766;51.502;9.752;2023-04-24T01:35:08;4.28;;;0.80;;
1545;SDS011;766;51.502;9.752;2023-04-24T01:37:36;0.98;;;0.60;;
1545;SDS011;766;51.502;9.752;2023-04-24T01:40:07;2.15;;;1.00;;
1545;SDS011;766;51.502;9.752;2023-04-24T01:42:36;1.13;;;0.73;;
1545;SDS011;766;51.502;9.752;2023-04-24T01:45:05;4.03;;;1.00;;
1545;SDS011;766;51.502;9.752;2023-04-24T01:47:34;1.50;;;0.93;;
1545;SDS011;766;51.502;9.752;2023-04-24T01:50:02;3.42;;;0.80;;
1545;SDS011;766;51.502;9.752;2023-04-24T01:52:31;3.63;;;0.80;;
1545;SDS011;766;51.502;9.752;2023-04-24T01:55:01;1.20;;;0.85;;
1545;SDS011;766;51.502;9.752;2023-04-24T01:57:31;1.45;;;1.10;;
1545;SDS011;766;51.502;9.752;2023-04-24T02:00:00;0.80;;;0.70;;
1545;SDS011;766;51.502;9.752;2023-04-24T02:02:31;1.10;;;0.77;;
1545;SDS011;766;51.502;9.752;2023-04-24T02:04:59;1.25;;;0.80;;
1545;SDS011;766;51.502;9.752;2023-04-24T02:07:29;0.93;;;0.63;;
1545;SDS011;766;51.502;9.752;2023-04-24T02:09:57;2.92;;;0.70;;
1545;SDS011;766;51.502;9.752;2023-04-24T02:12:26;2.33;;;0.90;;
1545;SDS011;766;51.502;9.752;2023-04-24T02:14:56;4.03;;;0.75;;
1545;SDS011;766;51.502;9.752;2023-04-24T02:17:25;2.67;;;0.80;;
1545;SDS011;766;51.502;9.752;2023-04-24T02:19:53;1.83;;;0.77;;
1545;SDS011;766;51.502;9.752;2023-04-24T02:22:21;0.63;;;0.63;;
1545;SDS011;766;51.502;9.752;2023-04-24T02:24:50;1.35;;;0.95;;
1545;SDS011;766;51.502;9.752;2023-04-24T02:27:18;0.80;;;0.68;;
1545;SDS011;766;51.502;9.752;2023-04-24T02:29:46;3.92;;;1.15;;
1545;SDS011;766;51.502;9.752;2023-04-24T02:32:16;1.85;;;0.88;;
1545;SDS011;766;51.502;9.752;2023-04-24T02:34:45;2.65;;;1.10;;
1545;SDS011;766;51.502;9.752;2023-04-24T02:37:15;1.10;;;0.80;;
1545;SDS011;766;51.502;9.752;2023-04-24T02:39:44;1.40;;;0.95;;
1545;SDS011;766;51.502;9.752;2023-04-24T02:42:13;1.45;;;0.88;;
1545;SDS011;766;51.502;9.752;2023-04-24T02:44:42;2.25;;;1.27;;
1545;SDS011;766;51.502;9.752;2023-04-24T02:47:11;0.75;;;0.70;;
1545;SDS011;766;51.502;9.752;2023-04-24T02:49:41;2.70;;;0.75;;
1545;SDS011;766;51.502;9.752;2023-04-24T02:52:10;3.40;;;0.98;;
1545;SDS011;766;51.502;9.752;2023-04-24T02:54:39;1.40;;;0.77;;
1545;SDS011;766;51.502;9.752;2023-04-24T02:57:07;1.27;;;0.70;;
1545;SDS011;766;51.502;9.752;2023-04-24T02:59:36;3.72;;;1.00;;
1545;SDS011;766;51.502;9.752;2023-04-24T03:02:04;2.13;;;0.95;;
1545;SDS011;766;51.502;9.752;2023-04-24T03:04:33;1.63;;;0.80;;
1545;SDS011;766;51.502;9.752;2023-04-24T03:07:04;3.47;;;1.00;;
1545;SDS011;766;51.502;9.752;2023-04-24T03:09:32;2.45;;;0.80;;
1545;SDS011;766;51.502;9.752;2023-04-24T03:12:00;1.95;;;1.00;;
1545;SDS011;766;51.502;9.752;2023-04-24T03:14:29;2.20;;;1.10;;
1545;SDS011;766;51.502;9.752;2023-04-24T03:17:00;1.85;;;1.05;;
1545;SDS011;766;51.502;9.752;2023-04-24T03:19:29;2.28;;;0.82;;
1545;SDS011;766;51.502;9.752;2023-04-24T03:21:57;1.48;;;0.95;;
1545;SDS011;766;51.502;9.752;2023-04-24T03:24:27;1.50;;;0.88;;
1545;SDS011;766;51.502;9.752;2023-04-24T03:26:55;1.92;;;1.05;;
1545;SDS011;766;51.502;9.752;2023-04-24T03:29:23;1.63;;;0.98;;
1545;SDS011;766;51.502;9.752;2023-04-24T03:31:54;2.10;;;1.10;;
1545;SDS011;766;51.502;9.752;2023-04-24T03:34:22;2.20;;;1.10;;
1545;SDS011;766;51.502;9.752;2023-04-24T03:36:51;2.00;;;0.88;;
1545;SDS011;766;51.502;9.752;2023-04-24T03:39:20;3.65;;;1.13;;
1545;SDS011;766;51.502;9.752;2023-04-24T03:41:50;2.88;;;1.00;;
1545;SDS011;766;51.502;9.752;2023-04-24T03:44:19;2.50;;;1.10;;
1545;SDS011;766;51.502;9.752;2023-04-24T03:46:47;2.90;;;1.08;;
1545;SDS011;766;51.502;9.752;2023-04-24T03:49:18;2.70;;;1.20;;
1545;SDS011;766;51.502;9.752;2023-04-24T03:51:47;3.35;;;1.08;;
1545;SDS011;766;51.502;9.752;2023-04-24T03:54:15;3.22;;;1.20;;
1545;SDS011;766;51.502;9.752;2023-04-24T03:56:44;8.98;;;1.05;;
1545;SDS011;766;51.502;9.752;2023-04-24T03:59:14;3.85;;;1.40;;
1545;SDS011;766;51.502;9.752;2023-04-24T04:01:43;2.13;;;1.10;;
1545;SDS011;766;51.502;9.752;2023-04-24T04:04:11;1.85;;;1.20;;
1545;SDS011;766;51.502;9.752;2023-04-24T04:06:40;4.47;;;1.35;;
1545;SDS011;766;51.502;9.752;2023-04-24T04:09:08;1.50;;;1.05;;
1545;SDS011;766;51.502;9.752;2023-04-24T04:11:37;2.10;;;1.20;;
1545;SDS011;766;51.502;9.752;2023-04-24T04:14:05;3.40;;;1.27;;
1545;SDS011;766;51.502;9.752;2023-04-24T04:16:35;1.63;;;1.20;;
1545;SDS011;766;51.502;9.752;2023-04-24T04:19:04;1.33;;;1.23;;
1545;SDS011;766;51.502;9.752;2023-04-24T04:21:32;3.63;;;1.23;;
1545;SDS011;766;51.502;9.752;2023-04-24T04:24:01;1.65;;;1.00;;
1545;SDS011;766;51.502;9.752;2023-04-24T04:26:31;4.25;;;1.55;;
1545;SDS011;766;51.502;9.752;2023-04-24T04:29:00;5.00;;;1.25;;
1545;SDS011;766;51.502;9.752;2023-04-24T04:31:29;4.32;;;1.35;;
1545;SDS011;766;51.502;9.752;2023-04-24T04:33:59;1.98;;;1.00;;
1545;SDS011;766;51.502;9.752;2023-04-24T04:36:28;2.83;;;1.17;;
1545;SDS011;766;51.502;9.752;2023-04-24T04:38:56;1.83;;;1.10;;
1545;SDS011;766;51.502;9.752;2023-04-24T04:41:25;2.55;;;0.90;;
1545;SDS011;766;51.502;9.752;2023-04-24T04:43:54;1.27;;;0.80;;
1545;SDS011;766;51.502;9.752;2023-04-24T04:46:24;1.30;;;1.00;;
1545;SDS011;766;51.502;9.752;2023-04-24T04:48:53;2.20;;;1.10;;
1545;SDS011;766;51.502;9.752;2023-04-24T04:51:24;1.25;;;0.98;;
1545;SDS011;766;51.502;9.752;2023-04-24T04:53:52;2.33;;;1.10;;
1545;SDS011;766;51.502;9.752;2023-04-24T04:56:21;2.33;;;1.00;;
1545;SDS011;766;51.502;9.752;2023-04-24T04:58:49;1.73;;;0.82;;
1545;SDS011;766;51.502;9.752;2023-04-24T05:01:18;3.42;;;1.30;;
1545;SDS011;766;51.502;9.752;2023-04-24T05:03:46;1.25;;;1.02;;
1545;SDS011;766;51.502;9.752;2023-04-24T05:06:15;1.80;;;1.35;;
1545;SDS011;766;51.502;9.752;2023-04-24T05:08:45;3.35;;;1.33;;
1545;SDS011;766;51.502;9.752;2023-04-24T05:11:13;1.38;;;1.27;;
1545;SDS011;766;51.502;9.752;2023-04-24T05:13:41;1.70;;;1.27;;
1545;SDS011;766;51.502;9.752;2023-04-24T05:16:09;1.90;;;1.52;;
1545;SDS011;766;51.502;9.752;2023-04-24T05:18:40;5.15;;;1.58;;
1545;SDS011;766;51.502;9.752;2023-04-24T05:21:09;2.63;;;1.40;;
1545;SDS011;766;51.502;9.752;2023-04-24T05:23:37;3.22;;;1.65;;
1545;SDS011;766;51.502;9.752;2023-04-24T05:26:07;2.45;;;1.33;;
1545;SDS011;766;51.502;9.752;2023-04-24T05:28:35;3.33;;;1.20;;
1545;SDS011;766;51.502;9.752;2023-04-24T05:31:04;2.00;;;1.10;;
1545;SDS011;766;51.502;9.752;2023-04-24T05:33:32;0.80;;;0.80;;
1545;SDS011;766;51.502;9.752;2023-04-24T05:36:01;2.10;;;1.20;;
1545;SDS011;766;51.502;9.752;2023-04-24T05:38:29;2.70;;;1.20;;
1545;SDS011;766;51.502;9.752;2023-04-24T05:40:57;1.63;;;1.40;;
1545;SDS011;766;51.502;9.752;2023-04-24T05:43:27;1.23;;;1.08;;
1545;SDS011;766;51.502;9.752;2023-04-24T05:45:55;3.92;;;1.20;;
1545;SDS011;766;51.502;9.752;2023-04-24T05:48:25;1.65;;;0.93;;
1545;SDS011;766;51.502;9.752;2023-04-24T05:50:53;1.40;;;1.20;;
1545;SDS011;766;51.502;9.752;2023-04-24T05:53:21;1.83;;;1.40;;
1545;SDS011;766;51.502;9.752;2023-04-24T05:55:51;2.45;;;1.10;;
1545;SDS011;766;51.502;9.752;2023-04-24T05:58:22;1.67;;;1.13;;
1545;SDS011;766;51.502;9.752;2023-04-24T06:00:52;2.22;;;1.45;;
1545;SDS011;766;51.502;9.752;2023-04-24T06:03:21;2.50;;;1.10;;
1545;SDS011;766;51.502;9.752;2023-04-24T06:05:50;1.48;;;1.20;;
1545;SDS011;766;51.502;9.752;2023-04-24T06:08:19;1.50;;;0.98;;
1545;SDS011;766;51.502;9.752;2023-04-24T06:10:47;3.75;;;1.60;;
1545;SDS011;766;51.502;9.752;2023-04-24T06:13:16;3.95;;;1.73;;
1545;SDS011;766;51.502;9.752;2023-04-24T06:15:44;1.95;;;1.40;;
1545;SDS011;766;51.502;9.752;2023-04-24T06:18:14;2.25;;;1.80;;
1545;SDS011;766;51.502;9.752;2023-04-24T06:20:42;2.53;;;1.42;;
1545;SDS011;766;51.502;9.752;2023-04-24T06:23:10;3.42;;;1.58;;
1545;SDS011;766;51.502;9.752;2023-04-24T06:25:39;2.80;;;1.80;;
1545;SDS011;766;51.502;9.752;2023-04-24T06:28:07;3.30;;;1.65;;
1545;SDS011;766;51.502;9.752;2023-04-24T06:30:35;2.33;;;1.67;;
1545;SDS011;766;51.502;9.752;2023-04-24T06:33:04;2.13;;;1.38;;
1545;SDS011;766;51.502;9.752;2023-04-24T06:35:48;2.40;;;1.60;;
1545;SDS011;766;51.502;9.752;2023-04-24T06:38:16;2.80;;;1.38;;
1545;SDS011;766;51.502;9.752;2023-04-24T06:40:44;3.95;;;1.55;;
1545;SDS011;766;51.502;9.752;2023-04-24T06:43:13;1.80;;;1.40;;
1545;SDS011;766;51.502;9.752;2023-04-24T06:45:41;3.08;;;1.50;;
1545;SDS011;766;51.502;9.752;2023-04-24T06:48:10;2.33;;;1.50;;
1545;SDS011;766;51.502;9.752;2023-04-24T06:50:39;5.05;;;1.42;;
1545;SDS011;766;51.502;9.752;2023-04-24T06:53:09;2.38;;;1.70;;
1545;SDS011;766;51.502;9.752;2023-04-24T06:55:39;2.20;;;1.73;;
1545;SDS011;766;51.502;9.752;2023-04-24T06:58:07;5.00;;;2.03;;
1545;SDS011;766;51.502;9.752;2023-04-24T07:00:36;2.22;;;1.90;;
1545;SDS011;766;51.502;9.752;2023-04-24T07:03:04;5.50;;;1.98;;
1545;SDS011;766;51.502;9.752;2023-04-24T07:05:33;3.05;;;2.38;;
1545;SDS011;766;51.502;9.752;2023-04-24T07:08:01;3.17;;;1.80;;
1545;SDS011;766;51.502;9.752;2023-04-24T07:10:35;4.15;;;2.33;;
1545;SDS011;766;51.502;9.752;2023-04-24T07:13:04;3.67;;;2.30;;
1545;SDS011;766;51.502;9.752;2023-04-24T07:15:33;3.58;;;2.63;;
1545;SDS011;766;51.502;9.752;2023-04-24T07:18:01;2.90;;;2.58;;
1545;SDS011;766;51.502;9.752;2023-04-24T07:20:31;4.18;;;2.38;;
1545;SDS011;766;51.502;9.752;2023-04-24T07:23:00;2.55;;;2.33;;
1545;SDS011;766;51.502;9.752;2023-04-24T07:25:33;3.63;;;2.47;;
1545;SDS011;766;51.502;9.752;2023-04-24T07:28:03;3.17;;;2.83;;
1545;SDS011;766;51.502;9.752;2023-04-24T07:30:35;3.63;;;2.58;;
1545;SDS011;766;51.502;9.752;2023-04-24T07:33:03;2.88;;;2.53;;
1545;SDS011;766;51.502;9.752;2023-04-24T07:35:33;3.28;;;2.53;;
1545;SDS011;766;51.502;9.752;2023-04-24T07:38:02;3.03;;;2.80;;
1545;SDS011;766;51.502;9.752;2023-04-24T07:40:30;3.13;;;2.20;;
1545;SDS011;766;51.502;9.752;2023-04-24T07:42:59;3.42;;;2.30;;
1545;SDS011;766;51.502;9.752;2023-04-24T07:45:29;2.97;;;2.30;;
1545;SDS011;766;51.502;9.752;2023-04-24T07:47:57;3.70;;;2.00;;
1545;SDS011;766;51.502;9.752;2023-04-24T07:50:26;2.55;;;2.20;;
1545;SDS011;766;51.502;9.752;2023-04-24T07:52:54;2.55;;;2.30;;
1545;SDS011;766;51.502;9.752;2023-04-24T07:55:22;2.45;;;2.25;;
1545;SDS011;766;51.502;9.752;2023-04-24T07:57:53;3.50;;;2.45;;
1545;SDS011;766;51.502;9.752;2023-04-24T08:00:22;2.40;;;2.20;;
1545;SDS011;766;51.502;9.752;2023-04-24T08:02:52;3.25;;;2.30;;
1545;SDS011;766;51.502;9.752;2023-04-24T08:05:21;2.50;;;2.17;;
1545;SDS011;766;51.502;9.752;2023-04-24T08:07:52;3.15;;;2.10;;
1545;SDS011;766;51.502;9.752;2023-04-24T08:10:21;3.72;;;2.10;;
1545;SDS011;766;51.502;9.752;2023-04-24T08:12:50;2.55;;;2.05;;
1545;SDS011;766;51.502;9.752;2023-04-24T08:15:18;2.92;;;2.25;;
1545;SDS011;766;51.502;9.752;2023-04-24T08:17:48;3.80;;;2.08;;
1545;SDS011;766;51.502;9.752;2023-04-24T08:20:18;2.58;;;2.00;;
1545;SDS011;766;51.502;9.752;2023-04-24T08:22:47;3.50;;;2.35;;
1545;SDS011;766;51.502;9.752;2023-04-24T08:25:15;3.42;;;2.10;;
1545;SDS011;766;51.502;9.752;2023-04-24T08:27:44;3.10;;;2.08;;
1545;SDS011;766;51.502;9.752;2023-04-24T08:30:13;2.65;;;1.70;;
1545;SDS011;766;51.502;9.752;2023-04-24T08:32:42;2.30;;;2.10;;
1545;SDS011;766;51.502;9.752;2023-04-24T08:35:11;3.13;;;1.77;;
1545;SDS011;766;51.502;9.752;2023-04-24T08:37:41;2.50;;;2.22;;
1545;SDS011;766;51.502;9.752;2023-04-24T08:40:12;2.70;;;1.95;;
1545;SDS011;766;51.502;9.752;2023-04-24T08:42:41;3.95;;;2.17;;
1545;SDS011;766;51.502;9.752;2023-04-24T08:45:11;2.78;;;1.83;;
1545;SDS011;766;51.502;9.752;2023-04-24T08:47:43;3.22;;;1.67;;
1545;SDS011;766;51.502;9.752;2023-04-24T08:50:12;2.65;;;1.80;;
1545;SDS011;766;51.502;9.752;2023-04-24T08:52:43;3.00;;;2.05;;
1545;SDS011;766;51.502;9.752;2023-04-24T08:55:12;3.22;;;1.90;;
1545;SDS011;766;51.502;9.752;2023-04-24T08:57:44;2.25;;;1.92;;
1545;SDS011;766;51.502;9.752;2023-04-24T09:00:16;2.53;;;1.90;;
1545;SDS011;766;51.502;9.752;2023-04-24T09:02:45;3.60;;;2.10;;
1545;SDS011;766;51.502;9.752;2023-04-24T09:05:16;3.08;;;2.30;;
1545;SDS011;766;51.502;9.752;2023-04-24T09:07:52;2.88;;;2.20;;
1545;SDS011;766;51.502;9.752;2023-04-24T09:10:22;3.20;;;2.45;;
1545;SDS011;766;51.502;9.752;2023-04-24T09:12:52;5.57;;;2.53;;
1545;SDS011;766;51.502;9.752;2023-04-24T09:15:21;4.97;;;2.47;;
1545;SDS011;766;51.502;9.752;2023-04-24T09:17:52;2.78;;;2.45;;
1545;SDS011;766;51.502;9.752;2023-04-24T09:20:20;4.72;;;2.70;;
1545;SDS011;766;51.502;9.752;2023-04-24T09:22:52;3.58;;;2.60;;
1545;SDS011;766;51.502;9.752;2023-04-24T09:25:22;4.15;;;3.05;;
1545;SDS011;766;51.502;9.752;2023-04-24T09:28:00;3.58;;;2.60;;
1545;SDS011;766;51.502;9.752;2023-04-24T09:33:59;5.93;;;3.00;;
1545;SDS011;766;51.502;9.752;2023-04-24T09:36:35;5.13;;;2.90;;
1545;SDS011;766;51.502;9.752;2023-04-24T09:39:11;3.15;;;2.47;;
1545;SDS011;766;51.502;9.752;2023-04-24T09:41:53;3.20;;;2.42;;
1545;SDS011;766;51.502;9.752;2023-04-24T09:44:35;4.20;;;2.25;;
1545;SDS011;766;51.502;9.752;2023-04-24T09:47:04;3.97;;;2.70;;
1545;SDS011;766;51.502;9.752;2023-04-24T09:49:37;3.42;;;2.10;;
1545;SDS011;766;51.502;9.752;2023-04-24T09:52:09;2.75;;;2.10;;
1545;SDS011;766;51.502;9.752;2023-04-24T09:54:40;2.80;;;2.20;;
1545;SDS011;766;51.502;9.752;2023-04-24T09:57:09;2.25;;;1.98;;
1545;SDS011;766;51.502;9.752;2023-04-24T09:59:41;2.47;;;1.80;;
1545;SDS011;766;51.502;9.752;2023-04-24T10:02:25;5.70;;;2.10;;
1545;SDS011;766;51.502;9.752;2023-04-24T10:06:02;2.67;;;2.20;;
1545;SDS011;766;51.502;9.752;2023-04-24T10:08:35;2.40;;;2.10;;
1545;SDS011;766;51.502;9.752;2023-04-24T10:11:06;2.85;;;2.08;;
1545;SDS011;766;51.502;9.752;2023-04-24T10:13:37;3.42;;;2.50;;
1545;SDS011;766;51.502;9.752;2023-04-24T10:16:07;2.85;;;2.15;;
1545;SDS011;766;51.502;9.752;2023-04-24T10:18:37;5.30;;;2.42;;
1545;SDS011;766;51.502;9.752;2023-04-24T10:21:07;3.22;;;2.35;;
1545;SDS011;766;51.502;9.752;2023-04-24T10:23:36;2.72;;;2.00;;
1545;SDS011;766;51.502;9.752;2023-04-24T10:26:10;2.85;;;2.55;;
1545;SDS011;766;51.502;9.752;2023-04-24T10:28:47;2.83;;;1.88;;
1545;SDS011;766;51.502;9.752;2023-04-24T10:31:16;2.08;;;1.83;;
1545;SDS011;766;51.502;9.752;2023-04-24T10:33:46;4.65;;;1.83;;
1545;SDS011;766;51.502;9.752;2023-04-24T10:36:15;3.75;;;2.05;;
1545;SDS011;766;51.502;9.752;2023-04-24T10:38:45;5.43;;;2.22;;
1545;SDS011;766;51.502;9.752;2023-04-24T10:41:20;5.00;;;2.33;;
1545;SDS011;766;51.502;9.752;2023-04-24T10:44:03;3.13;;;1.83;;
1545;SDS011;766;51.502;9.752;2023-04-24T10:46:32;2.10;;;1.70;;
1545;SDS011;766;51.502;9.752;2023-04-24T10:49:03;1.80;;;1.45;;
1545;SDS011;766;51.502;9.752;2023-04-24T10:51:45;2.20;;;1.50;;
1545;SDS011;766;51.502;9.752;2023-04-24T10:54:21;1.75;;;1.30;;
1545;SDS011;766;51.502;9.752;2023-04-24T10:56:52;1.38;;;1.17;;
1545;SDS011;766;51.502;9.752;2023-04-24T10:59:24;2.97;;;1.10;;
1545;SDS011;766;51.502;9.752;2023-04-24T11:01:53;5.78;;;1.52;;
1545;SDS011;766;51.502;9.752;2023-04-24T11:04:29;5.78;;;1.90;;
1545;SDS011;766;51.502;9.752;2023-04-24T11:06:58;1.60;;;1.50;;
1545;SDS011;766;51.502;9.752;2023-04-24T11:09:27;3.22;;;1.67;;
1545;SDS011;766;51.502;9.752;2023-04-24T11:12:05;1.75;;;1.65;;
1545;SDS011;766;51.502;9.752;2023-04-24T11:17:29;1.92;;;1.38;;
1545;SDS011;766;51.502;9.752;2023-04-24T11:20:03;2.95;;;1.83;;
1545;SDS011;766;51.502;9.752;2023-04-24T11:22:52;2.05;;;1.58;;
1545;SDS011;766;51.502;9.752;2023-04-24T11:25:23;2.83;;;1.85;;
1545;SDS011;766;51.502;9.752;2023-04-24T11:28:02;2.92;;;2.10;;
1545;SDS011;766;51.502;9.752;2023-04-24T11:30:31;1.92;;;1.73;;
1545;SDS011;766;51.502;9.752;2023-04-24T11:33:02;2.65;;;2.00;;
1545;SDS011;766;51.502;9.752;2023-04-24T11:35:35;2.53;;;1.77;;
1545;SDS011;766;51.502;9.752;2023-04-24T11:38:07;2.10;;;1.45;;
1545;SDS011;766;51.502;9.752;2023-04-24T11:40:51;2.45;;;1.77;;
1545;SDS011;766;51.502;9.752;2023-04-24T11:43:22;2.35;;;1.80;;
1545;SDS011;766;51.502;9.752;2023-04-24T11:45:51;1.85;;;1.75;;
1545;SDS011;766;51.502;9.752;2023-04-24T11:48:20;2.75;;;1.83;;
1545;SDS011;766;51.502;9.752;2023-04-24T11:50:50;1.98;;;1.60;;
1545;SDS011;766;51.502;9.752;2023-04-24T11:53:19;1.35;;;1.25;;
1545;SDS011;766;51.502;9.752;2023-04-24T11:55:48;2.33;;;1.08;;
1545;SDS011;766;51.502;9.752;2023-04-24T11:58:21;0.90;;;0.90;;
1545;SDS011;766;51.502;9.752;2023-04-24T12:00:55;0.50;;;0.50;;
1545;SDS011;766;51.502;9.752;2023-04-24T12:03:25;0.50;;;0.30;;
1545;SDS011;766;51.502;9.752;2023-04-24T12:06:04;0.20;;;0.20;;
1545;SDS011;766;51.502;9.752;2023-04-24T12:08:35;0.30;;;0.30;;
1545;SDS011;766;51.502;9.752;2023-04-24T12:11:04;0.77;;;0.30;;
1545;SDS011;766;51.502;9.752;2023-04-24T12:13:36;0.20;;;0.20;;
1545;SDS011;766;51.502;9.752;2023-04-24T12:16:04;0.20;;;0.20;;
1545;SDS011;766;51.502;9.752;2023-04-24T12:18:32;0.20;;;0.20;;
1545;SDS011;766;51.502;9.752;2023-04-24T12:21:17;1.75;;;0.20;;
1545;SDS011;766;51.502;9.752;2023-04-24T12:23:48;0.30;;;0.30;;
1545;SDS011;766;51.502;9.752;2023-04-24T12:26:18;0.20;;;0.20;;
1545;SDS011;766;51.502;9.752;2023-04-24T12:28:49;0.20;;;0.20;;
1545;SDS011;766;51.502;9.752;2023-04-24T12:31:18;0.20;;;0.20;;
1545;SDS011;766;51.502;9.752;2023-04-24T12:33:49;2.80;;;0.38;;
1545;SDS011;766;51.502;9.752;2023-04-24T12:36:17;0.28;;;0.28;;
1545;SDS011;766;51.502;9.752;2023-04-24T12:38:52;0.40;;;0.40;;
1545;SDS011;766;51.502;9.752;2023-04-24T12:41:20;2.28;;;0.35;;
1545;SDS011;766;51.502;9.752;2023-04-24T12:43:53;0.65;;;0.40;;
1545;SDS011;766;51.502;9.752;2023-04-24T12:46:22;0.60;;;0.40;;
1545;SDS011;766;51.502;9.752;2023-04-24T12:48:50;0.35;;;0.35;;
1545;SDS011;766;51.502;9.752;2023-04-24T12:51:19;0.50;;;0.50;;
1545;SDS011;766;51.502;9.752;2023-04-24T12:53:47;0.30;;;0.30;;
1545;SDS011;766;51.502;9.752;2023-04-24T12:56:16;0.30;;;0.30;;
1545;SDS011;766;51.502;9.752;2023-04-24T12:58:45;0.50;;;0.43;;
1545;SDS011;766;51.502;9.752;2023-04-24T13:01:15;0.50;;;0.32;;
1545;SDS011;766;51.502;9.752;2023-04-24T13:03:46;0.85;;;0.40;;
1545;SDS011;766;51.502;9.752;2023-04-24T13:06:15;0.30;;;0.30;;
1545;SDS011;766;51.502;9.752;2023-04-24T13:08:44;0.30;;;0.30;;
1545;SDS011;766;51.502;9.752;2023-04-24T13:11:14;0.20;;;0.20;;
1545;SDS011;766;51.502;9.752;2023-04-24T13:13:43;0.75;;;0.30;;
1545;SDS011;766;51.502;9.752;2023-04-24T13:16:11;0.22;;;0.22;;
1545;SDS011;766;51.502;9.752;2023-04-24T13:18:41;0.95;;;0.30;;
1545;SDS011;766;51.502;9.752;2023-04-24T13:21:09;1.55;;;0.40;;
1545;SDS011;766;51.502;9.752;2023-04-24T13:23:38;0.60;;;0.35;;
1545;SDS011;766;51.502;9.752;2023-04-24T13:26:08;0.22;;;0.22;;
1545;SDS011;766;51.502;9.752;2023-04-24T13:28:36;0.73;;;0.30;;
1545;SDS011;766;51.502;9.752;2023-04-24T13:31:05;0.52;;;0.40;;
1545;SDS011;766;51.502;9.752;2023-04-24T13:33:37;0.50;;;0.40;;
1545;SDS011;766;51.502;9.752;2023-04-24T13:36:07;0.50;;;0.50;;
1545;SDS011;766;51.502;9.752;2023-04-24T13:38:35;0.40;;;0.40;;
1545;SDS011;766;51.502;9.752;2023-04-24T13:41:05;0.40;;;0.40;;
1545;SDS011;766;51.502;9.752;2023-04-24T13:43:34;1.60;;;0.47;;
1545;SDS011;766;51.502;9.752;2023-04-24T13:46:02;0.50;;;0.50;;
1545;SDS011;766;51.502;9.752;2023-04-24T13:48:31;0.50;;;0.50;;
1545;SDS011;766;51.502;9.752;2023-04-24T13:51:00;0.93;;;0.60;;
1545;SDS011;766;51.502;9.752;2023-04-24T13:53:30;0.55;;;0.47;;
1545;SDS011;766;51.502;9.752;2023-04-24T13:55:59;0.73;;;0.45;;
1545;SDS011;766;51.502;9.752;2023-04-24T13:58:27;0.45;;;0.38;;
1545;SDS011;766;51.502;9.752;2023-04-24T14:00:55;0.55;;;0.52;;
1545;SDS011;766;51.502;9.752;2023-04-24T14:03:24;0.40;;;0.40;;
1545;SDS011;766;51.502;9.752;2023-04-24T14:05:52;0.50;;;0.50;;
1545;SDS011;766;51.502;9.752;2023-04-24T14:08:20;0.68;;;0.68;;
1545;SDS011;766;51.502;9.752;2023-04-24T14:10:51;0.52;;;0.50;;
1545;SDS011;766;51.502;9.752;2023-04-24T14:13:19;0.65;;;0.65;;
1545;SDS011;766;51.502;9.752;2023-04-24T14:15:48;0.70;;;0.70;;
1545;SDS011;766;51.502;9.752;2023-04-24T14:18:17;0.88;;;0.80;;
1545;SDS011;766;51.502;9.752;2023-04-24T14:20:45;2.25;;;0.90;;
1545;SDS011;766;51.502;9.752;2023-04-24T14:23:14;0.80;;;0.80;;
1545;SDS011;766;51.502;9.752;2023-04-24T14:25:44;1.42;;;1.23;;
1545;SDS011;766;51.502;9.752;2023-04-24T14:28:16;1.98;;;1.63;;
1545;SDS011;766;51.502;9.752;2023-04-24T14:30:47;3.42;;;1.80;;
1545;SDS011;766;51.502;9.752;2023-04-24T14:33:17;2.40;;;1.80;;
1545;SDS011;766;51.502;9.752;2023-04-24T14:35:45;2.08;;;1.85;;
1545;SDS011;766;51.502;9.752;2023-04-24T14:38:14;3.38;;;2.25;;
1545;SDS011;766;51.502;9.752;2023-04-24T14:40:42;3.75;;;2.35;;
1545;SDS011;766;51.502;9.752;2023-04-24T14:43:32;2.85;;;2.20;;
1545;SDS011;766;51.502;9.752;2023-04-24T14:46:04;4.82;;;2.78;;
1545;SDS011;766;51.502;9.752;2023-04-24T14:48:33;5.03;;;2.67;;
1545;SDS011;766;51.502;9.752;2023-04-24T14:51:01;3.38;;;2.15;;
1545;SDS011;766;51.502;9.752;2023-04-24T14:53:30;3.60;;;2.70;;
1545;SDS011;766;51.502;9.752;2023-04-24T14:55:58;4.88;;;2.70;;
1545;SDS011;766;51.502;9.752;2023-04-24T14:58:26;4.78;;;2.97;;
1545;SDS011;766;51.502;9.752;2023-04-24T15:00:56;5.30;;;2.90;;
1545;SDS011;766;51.502;9.752;2023-04-24T15:03:24;6.55;;;3.50;;
1545;SDS011;766;51.502;9.752;2023-04-24T15:05:55;6.88;;;4.25;;
1545;SDS011;766;51.502;9.752;2023-04-24T15:08:23;4.65;;;3.50;;
1545;SDS011;766;51.502;9.752;2023-04-24T15:10:52;6.85;;;3.38;;
1545;SDS011;766;51.502;9.752;2023-04-24T15:13:20;7.25;;;4.15;;
1545;SDS011;766;51.502;9.752;2023-04-24T15:15:50;7.53;;;3.50;;
1545;SDS011;766;51.502;9.752;2023-04-24T15:18:19;4.88;;;3.65;;
1545;SDS011;766;51.502;9.752;2023-04-24T15:20:48;6.50;;;3.90;;
1545;SDS011;766;51.502;9.752;2023-04-24T15:23:16;8.88;;;4.15;;
1545;SDS011;766;51.502;9.752;2023-04-24T15:25:45;6.60;;;4.18;;
1545;SDS011;766;51.502;9.752;2023-04-24T15:28:14;4.90;;;3.83;;
1545;SDS011;766;51.502;9.752;2023-04-24T15:30:42;7.40;;;4.18;;
1545;SDS011;766;51.502;9.752;2023-04-24T15:33:11;7.40;;;3.80;;
1545;SDS011;766;51.502;9.752;2023-04-24T15:35:40;8.00;;;4.15;;
1545;SDS011;766;51.502;9.752;2023-04-24T15:38:09;6.43;;;4.30;;
1545;SDS011;766;51.502;9.752;2023-04-24T15:40:40;6.93;;;4.45;;
1545;SDS011;766;51.502;9.752;2023-04-24T15:43:09;7.80;;;4.53;;
1545;SDS011;766;51.502;9.752;2023-04-24T15:45:38;8.90;;;4.82;;
1545;SDS011;766;51.502;9.752;2023-04-24T15:48:09;11.48;;;4.70;;
1545;SDS011;766;51.502;9.752;2023-04-24T15:50:38;6.63;;;4.00;;
1545;SDS011;766;51.502;9.752;2023-04-24T15:53:07;6.57;;;3.95;;